Hlavní strana
METAR-TAF:

METAR-TAF

Letiště :

Niamey, Niger

zeměpisná šířka: 13-29N, zeměpisná délka: 002-10E, výška: 223 m

Aktuální stav počasí

Zpráva byla vytvořena před 27 minutami, v 07:00 UTC
Severovýchodní vítr 6 kt
Teplota 20°C
Vlhkost vzduchu 24%
Tlak 1017 hPa
Viditelnost: 8000 m

METAR: DRRN 150700Z 04006KT 8000 NSC 20/M01 Q1017 NOSIG

Čas: 08:27 (07:27 UTC)

Předpověď počasí

Zpráva byla vytvořena před 2 hodinami a 27 minutami, v 05:00 UTC
Předpověď platná od 15 v 06 UTC do 16 v 12 UTC
Severovýchodní vítr 8 kt
Viditelnost: 8000 m
Dočasný
od 15 v 06 UTC do 15 v 09 UTC
Viditelnost: 4000 m
rozsáhlý prach
Dočasný
od 15 v 09 UTC do 15 v 13 UTC
Východní vítr 18 kt
Viditelnost: 4500 m
zvířený prach
Dočasný
od 15 v 17 UTC do 15 v 20 UTC
Viditelnost: 4000 m
rozsáhlý prach

TAF: DRRN 150500Z 1506/1612 04008KT 8000 NSC TEMPO 1506/1509 4000 DU TEMPO 1509/1513 08018KT 4500 BLDU TEMPO 1517/1520 4000 DU

Stav a předpovědi počasí z více než 4 000 letišť (zprávy METAR a TAF).

Červené a žluté tečky na mapě představují dostupné meteorologické stanice.

Když kurzor umístíte na tečku, zobrazí se název stanice.

Pak kliknutím zobrazíte stav a předpověď počasí.

Chcete-li změnit mapu, kliknutím na zelené tlačítko se znaménkem +mapu přiblížíte, kliknutím na zelené tlačítko se znaménkem – mapu oddálíte a kliknutím na zelené šipky přejdete na sousední mapy.


METAR-TAF: